sensor_id;sensor_type;location;lat;lon;timestamp;P1;durP1;ratioP1;P2;durP2;ratioP2
7621;SDS011;3852;52.284;8.032;2022-08-18T00:00:50;15.13;;;13.70;;
7621;SDS011;3852;52.284;8.032;2022-08-18T00:03:16;19.40;;;17.23;;
7621;SDS011;3852;52.284;8.032;2022-08-18T00:05:43;18.53;;;16.63;;
7621;SDS011;3852;52.284;8.032;2022-08-18T00:08:12;17.97;;;16.17;;
7621;SDS011;3852;52.284;8.032;2022-08-18T00:10:39;16.03;;;14.43;;
7621;SDS011;3852;52.284;8.032;2022-08-18T00:13:06;18.53;;;16.70;;
7621;SDS011;3852;52.284;8.032;2022-08-18T00:15:32;19.30;;;16.10;;
7621;SDS011;3852;52.284;8.032;2022-08-18T00:17:58;18.30;;;16.60;;
7621;SDS011;3852;52.284;8.032;2022-08-18T00:20:24;18.63;;;16.50;;
7621;SDS011;3852;52.284;8.032;2022-08-18T00:22:50;20.10;;;18.00;;
7621;SDS011;3852;52.284;8.032;2022-08-18T00:25:17;17.80;;;16.00;;
7621;SDS011;3852;52.284;8.032;2022-08-18T00:27:44;17.20;;;15.50;;
7621;SDS011;3852;52.284;8.032;2022-08-18T00:30:12;20.27;;;17.33;;
7621;SDS011;3852;52.284;8.032;2022-08-18T00:32:49;20.23;;;18.00;;
7621;SDS011;3852;52.284;8.032;2022-08-18T00:35:31;17.60;;;15.63;;
7621;SDS011;3852;52.284;8.032;2022-08-18T00:38:01;17.80;;;15.50;;
7621;SDS011;3852;52.284;8.032;2022-08-18T00:40:38;17.57;;;15.77;;
7621;SDS011;3852;52.284;8.032;2022-08-18T00:43:10;18.93;;;16.87;;
7621;SDS011;3852;52.284;8.032;2022-08-18T00:45:43;20.57;;;18.37;;
7621;SDS011;3852;52.284;8.032;2022-08-18T00:48:11;22.93;;;19.40;;
7621;SDS011;3852;52.284;8.032;2022-08-18T00:53:14;22.13;;;19.13;;
7621;SDS011;3852;52.284;8.032;2022-08-18T00:55:47;23.63;;;19.80;;
7621;SDS011;3852;52.284;8.032;2022-08-18T00:58:19;22.33;;;19.97;;
7621;SDS011;3852;52.284;8.032;2022-08-18T01:00:55;22.83;;;20.07;;
7621;SDS011;3852;52.284;8.032;2022-08-18T01:03:21;23.13;;;20.57;;
7621;SDS011;3852;52.284;8.032;2022-08-18T01:05:53;20.43;;;18.23;;
7621;SDS011;3852;52.284;8.032;2022-08-18T01:08:39;23.13;;;19.67;;
7621;SDS011;3852;52.284;8.032;2022-08-18T01:11:05;21.40;;;19.17;;
7621;SDS011;3852;52.284;8.032;2022-08-18T01:13:31;22.40;;;20.00;;
7621;SDS011;3852;52.284;8.032;2022-08-18T01:15:58;22.10;;;19.07;;
7621;SDS011;3852;52.284;8.032;2022-08-18T01:18:44;21.63;;;19.37;;
7621;SDS011;3852;52.284;8.032;2022-08-18T01:21:29;19.73;;;17.63;;
7621;SDS011;3852;52.284;8.032;2022-08-18T01:24:16;20.33;;;18.20;;
7621;SDS011;3852;52.284;8.032;2022-08-18T01:26:45;22.40;;;19.70;;
7621;SDS011;3852;52.284;8.032;2022-08-18T01:29:15;22.27;;;19.93;;
7621;SDS011;3852;52.284;8.032;2022-08-18T01:31:44;26.07;;;22.77;;
7621;SDS011;3852;52.284;8.032;2022-08-18T01:34:19;24.43;;;21.23;;
7621;SDS011;3852;52.284;8.032;2022-08-18T01:36:49;22.63;;;20.33;;
7621;SDS011;3852;52.284;8.032;2022-08-18T01:39:17;22.17;;;19.67;;
7621;SDS011;3852;52.284;8.032;2022-08-18T01:41:46;22.67;;;20.27;;
7621;SDS011;3852;52.284;8.032;2022-08-18T01:44:12;23.37;;;20.83;;
7621;SDS011;3852;52.284;8.032;2022-08-18T01:46:39;23.87;;;21.30;;
7621;SDS011;3852;52.284;8.032;2022-08-18T01:49:06;22.87;;;19.93;;
7621;SDS011;3852;52.284;8.032;2022-08-18T01:51:34;20.93;;;18.47;;
7621;SDS011;3852;52.284;8.032;2022-08-18T01:54:05;23.27;;;20.33;;
7621;SDS011;3852;52.284;8.032;2022-08-18T01:56:31;25.07;;;21.97;;
7621;SDS011;3852;52.284;8.032;2022-08-18T01:58:57;22.67;;;20.27;;
7621;SDS011;3852;52.284;8.032;2022-08-18T02:01:23;24.47;;;21.47;;
7621;SDS011;3852;52.284;8.032;2022-08-18T02:03:52;24.40;;;21.70;;
7621;SDS011;3852;52.284;8.032;2022-08-18T02:06:25;24.70;;;21.80;;
7621;SDS011;3852;52.284;8.032;2022-08-18T02:08:51;29.87;;;24.07;;
7621;SDS011;3852;52.284;8.032;2022-08-18T02:11:17;28.07;;;23.57;;
7621;SDS011;3852;52.284;8.032;2022-08-18T02:13:43;28.27;;;22.67;;
7621;SDS011;3852;52.284;8.032;2022-08-18T02:16:09;26.83;;;22.60;;
7621;SDS011;3852;52.284;8.032;2022-08-18T02:18:35;25.57;;;22.77;;
7621;SDS011;3852;52.284;8.032;2022-08-18T02:21:10;28.53;;;24.23;;
7621;SDS011;3852;52.284;8.032;2022-08-18T02:23:42;25.03;;;21.57;;
7621;SDS011;3852;52.284;8.032;2022-08-18T02:26:09;25.30;;;21.13;;
7621;SDS011;3852;52.284;8.032;2022-08-18T02:28:39;27.37;;;21.80;;
7621;SDS011;3852;52.284;8.032;2022-08-18T02:31:06;27.47;;;23.37;;
7621;SDS011;3852;52.284;8.032;2022-08-18T02:33:38;27.63;;;23.73;;
7621;SDS011;3852;52.284;8.032;2022-08-18T02:36:04;26.70;;;21.40;;
7621;SDS011;3852;52.284;8.032;2022-08-18T02:38:31;24.90;;;21.67;;
7621;SDS011;3852;52.284;8.032;2022-08-18T02:40:58;26.97;;;22.50;;
7621;SDS011;3852;52.284;8.032;2022-08-18T02:43:30;28.33;;;23.63;;
7621;SDS011;3852;52.284;8.032;2022-08-18T02:45:57;25.47;;;22.30;;
7621;SDS011;3852;52.284;8.032;2022-08-18T02:48:22;28.67;;;24.23;;
7621;SDS011;3852;52.284;8.032;2022-08-18T02:51:12;32.93;;;26.17;;
7621;SDS011;3852;52.284;8.032;2022-08-18T02:53:41;33.20;;;26.73;;
7621;SDS011;3852;52.284;8.032;2022-08-18T02:56:10;28.33;;;23.67;;
7621;SDS011;3852;52.284;8.032;2022-08-18T02:58:52;28.53;;;23.93;;
7621;SDS011;3852;52.284;8.032;2022-08-18T03:01:23;29.33;;;23.90;;
7621;SDS011;3852;52.284;8.032;2022-08-18T03:03:57;31.63;;;26.07;;
7621;SDS011;3852;52.284;8.032;2022-08-18T03:06:24;31.37;;;25.07;;
7621;SDS011;3852;52.284;8.032;2022-08-18T03:08:52;30.37;;;24.47;;
7621;SDS011;3852;52.284;8.032;2022-08-18T03:11:21;29.80;;;25.13;;
7621;SDS011;3852;52.284;8.032;2022-08-18T03:13:50;34.00;;;26.73;;
7621;SDS011;3852;52.284;8.032;2022-08-18T03:16:16;32.37;;;26.77;;
7621;SDS011;3852;52.284;8.032;2022-08-18T03:18:46;30.70;;;25.40;;
7621;SDS011;3852;52.284;8.032;2022-08-18T03:21:13;33.23;;;26.03;;
7621;SDS011;3852;52.284;8.032;2022-08-18T03:23:45;31.80;;;26.40;;
7621;SDS011;3852;52.284;8.032;2022-08-18T03:26:13;33.77;;;25.77;;
7621;SDS011;3852;52.284;8.032;2022-08-18T03:28:42;33.50;;;27.50;;
7621;SDS011;3852;52.284;8.032;2022-08-18T03:31:11;40.30;;;30.60;;
7621;SDS011;3852;52.284;8.032;2022-08-18T03:33:38;46.77;;;35.63;;
7621;SDS011;3852;52.284;8.032;2022-08-18T03:36:16;44.97;;;35.13;;
7621;SDS011;3852;52.284;8.032;2022-08-18T03:38:48;50.70;;;38.83;;
7621;SDS011;3852;52.284;8.032;2022-08-18T03:41:16;47.27;;;37.43;;
7621;SDS011;3852;52.284;8.032;2022-08-18T03:43:51;53.90;;;41.83;;
7621;SDS011;3852;52.284;8.032;2022-08-18T03:46:18;54.60;;;41.00;;
7621;SDS011;3852;52.284;8.032;2022-08-18T03:48:46;50.67;;;40.00;;
7621;SDS011;3852;52.284;8.032;2022-08-18T03:51:14;51.30;;;39.50;;
7621;SDS011;3852;52.284;8.032;2022-08-18T03:53:52;56.40;;;41.50;;
7621;SDS011;3852;52.284;8.032;2022-08-18T03:56:25;54.03;;;39.60;;
7621;SDS011;3852;52.284;8.032;2022-08-18T03:58:56;64.43;;;44.03;;
7621;SDS011;3852;52.284;8.032;2022-08-18T04:01:26;63.83;;;45.73;;
7621;SDS011;3852;52.284;8.032;2022-08-18T04:03:58;74.80;;;47.43;;
7621;SDS011;3852;52.284;8.032;2022-08-18T04:06:33;66.93;;;46.10;;
7621;SDS011;3852;52.284;8.032;2022-08-18T04:09:03;67.97;;;46.97;;
7621;SDS011;3852;52.284;8.032;2022-08-18T04:11:33;77.53;;;48.27;;
7621;SDS011;3852;52.284;8.032;2022-08-18T04:14:02;82.60;;;52.10;;
7621;SDS011;3852;52.284;8.032;2022-08-18T04:16:29;86.50;;;54.30;;
7621;SDS011;3852;52.284;8.032;2022-08-18T04:18:57;84.90;;;54.70;;
7621;SDS011;3852;52.284;8.032;2022-08-18T04:21:28;91.43;;;56.87;;
7621;SDS011;3852;52.284;8.032;2022-08-18T04:23:57;89.63;;;55.93;;
7621;SDS011;3852;52.284;8.032;2022-08-18T04:26:28;94.23;;;56.90;;
7621;SDS011;3852;52.284;8.032;2022-08-18T04:29:01;90.17;;;55.13;;
7621;SDS011;3852;52.284;8.032;2022-08-18T04:31:30;98.57;;;60.57;;
7621;SDS011;3852;52.284;8.032;2022-08-18T04:33:57;110.83;;;63.77;;
7621;SDS011;3852;52.284;8.032;2022-08-18T04:36:24;109.37;;;63.70;;
7621;SDS011;3852;52.284;8.032;2022-08-18T04:38:52;102.30;;;61.20;;
7621;SDS011;3852;52.284;8.032;2022-08-18T04:41:18;103.30;;;61.20;;
7621;SDS011;3852;52.284;8.032;2022-08-18T04:43:50;107.37;;;60.93;;
7621;SDS011;3852;52.284;8.032;2022-08-18T04:46:27;100.80;;;59.93;;
7621;SDS011;3852;52.284;8.032;2022-08-18T04:48:54;104.87;;;60.80;;
7621;SDS011;3852;52.284;8.032;2022-08-18T04:51:27;101.10;;;59.53;;
7621;SDS011;3852;52.284;8.032;2022-08-18T04:53:54;98.07;;;55.40;;
7621;SDS011;3852;52.284;8.032;2022-08-18T04:56:28;102.97;;;60.43;;
7621;SDS011;3852;52.284;8.032;2022-08-18T05:01:41;106.63;;;60.73;;
7621;SDS011;3852;52.284;8.032;2022-08-18T05:04:10;113.10;;;63.23;;
7621;SDS011;3852;52.284;8.032;2022-08-18T05:06:37;112.07;;;63.23;;
7621;SDS011;3852;52.284;8.032;2022-08-18T05:09:08;107.17;;;60.67;;
7621;SDS011;3852;52.284;8.032;2022-08-18T05:11:35;102.37;;;60.33;;
7621;SDS011;3852;52.284;8.032;2022-08-18T05:14:03;108.97;;;60.63;;
7621;SDS011;3852;52.284;8.032;2022-08-18T05:16:32;98.13;;;57.80;;
7621;SDS011;3852;52.284;8.032;2022-08-18T05:19:04;103.40;;;58.60;;
7621;SDS011;3852;52.284;8.032;2022-08-18T05:21:33;111.93;;;61.13;;
7621;SDS011;3852;52.284;8.032;2022-08-18T05:24:01;103.43;;;60.80;;
7621;SDS011;3852;52.284;8.032;2022-08-18T05:26:28;106.30;;;60.47;;
7621;SDS011;3852;52.284;8.032;2022-08-18T05:28:53;101.37;;;58.77;;
7621;SDS011;3852;52.284;8.032;2022-08-18T05:31:20;104.23;;;62.07;;
7621;SDS011;3852;52.284;8.032;2022-08-18T05:33:49;97.37;;;58.07;;
7621;SDS011;3852;52.284;8.032;2022-08-18T05:42:05;94.50;;;57.77;;
7621;SDS011;3852;52.284;8.032;2022-08-18T05:44:38;104.53;;;62.40;;
7621;SDS011;3852;52.284;8.032;2022-08-18T05:49:54;104.50;;;60.87;;
7621;SDS011;3852;52.284;8.032;2022-08-18T05:55:07;94.90;;;60.27;;
7621;SDS011;3852;52.284;8.032;2022-08-18T05:58:03;101.20;;;60.03;;
7621;SDS011;3852;52.284;8.032;2022-08-18T06:00:36;94.13;;;58.90;;
7621;SDS011;3852;52.284;8.032;2022-08-18T06:03:11;94.60;;;57.97;;
7621;SDS011;3852;52.284;8.032;2022-08-18T06:05:52;99.43;;;60.33;;
7621;SDS011;3852;52.284;8.032;2022-08-18T06:08:23;85.57;;;55.00;;
7621;SDS011;3852;52.284;8.032;2022-08-18T06:10:56;90.67;;;59.10;;
7621;SDS011;3852;52.284;8.032;2022-08-18T06:13:21;93.43;;;57.90;;
7621;SDS011;3852;52.284;8.032;2022-08-18T06:41:35;78.40;;;51.33;;
7621;SDS011;3852;52.284;8.032;2022-08-18T06:44:08;87.97;;;54.33;;
7621;SDS011;3852;52.284;8.032;2022-08-18T06:47:05;79.07;;;52.37;;
7621;SDS011;3852;52.284;8.032;2022-08-18T06:50:27;75.43;;;52.37;;
7621;SDS011;3852;52.284;8.032;2022-08-18T06:53:00;72.93;;;48.43;;
7621;SDS011;3852;52.284;8.032;2022-08-18T06:55:50;78.27;;;49.93;;
7621;SDS011;3852;52.284;8.032;2022-08-18T07:01:04;76.73;;;51.00;;
7621;SDS011;3852;52.284;8.032;2022-08-18T07:06:07;80.70;;;53.63;;
7621;SDS011;3852;52.284;8.032;2022-08-18T07:08:48;76.43;;;51.57;;
7621;SDS011;3852;52.284;8.032;2022-08-18T07:13:43;73.20;;;49.47;;
7621;SDS011;3852;52.284;8.032;2022-08-18T07:19:09;66.00;;;44.47;;
7621;SDS011;3852;52.284;8.032;2022-08-18T07:21:39;59.33;;;42.53;;
7621;SDS011;3852;52.284;8.032;2022-08-18T07:27:01;57.60;;;40.90;;
7621;SDS011;3852;52.284;8.032;2022-08-18T07:32:33;52.37;;;38.17;;
7621;SDS011;3852;52.284;8.032;2022-08-18T07:35:31;50.30;;;37.13;;
7621;SDS011;3852;52.284;8.032;2022-08-18T07:41:05;49.20;;;35.70;;
7621;SDS011;3852;52.284;8.032;2022-08-18T07:43:41;43.07;;;32.90;;
7621;SDS011;3852;52.284;8.032;2022-08-18T07:46:19;43.00;;;31.20;;
7621;SDS011;3852;52.284;8.032;2022-08-18T07:48:50;41.27;;;29.47;;
7621;SDS011;3852;52.284;8.032;2022-08-18T07:54:17;39.73;;;28.87;;
7621;SDS011;3852;52.284;8.032;2022-08-18T08:02:42;38.63;;;28.70;;
7621;SDS011;3852;52.284;8.032;2022-08-18T08:08:36;39.33;;;29.37;;
7621;SDS011;3852;52.284;8.032;2022-08-18T08:29:02;33.63;;;26.40;;
7621;SDS011;3852;52.284;8.032;2022-08-18T08:34:48;31.10;;;25.10;;
7621;SDS011;3852;52.284;8.032;2022-08-18T08:37:23;31.00;;;25.23;;
7621;SDS011;3852;52.284;8.032;2022-08-18T08:40:04;30.50;;;24.70;;
7621;SDS011;3852;52.284;8.032;2022-08-18T08:42:50;28.90;;;23.73;;
7621;SDS011;3852;52.284;8.032;2022-08-18T08:45:49;26.90;;;21.70;;
7621;SDS011;3852;52.284;8.032;2022-08-18T08:48:51;25.67;;;20.63;;
7621;SDS011;3852;52.284;8.032;2022-08-18T08:51:35;24.17;;;19.50;;
7621;SDS011;3852;52.284;8.032;2022-08-18T08:54:10;22.67;;;17.77;;
7621;SDS011;3852;52.284;8.032;2022-08-18T08:56:47;17.37;;;15.57;;
7621;SDS011;3852;52.284;8.032;2022-08-18T08:59:18;20.97;;;15.40;;
7621;SDS011;3852;52.284;8.032;2022-08-18T09:07:42;15.93;;;14.27;;
7621;SDS011;3852;52.284;8.032;2022-08-18T09:24:46;17.53;;;14.90;;
7621;SDS011;3852;52.284;8.032;2022-08-18T09:31:15;18.77;;;15.63;;
7621;SDS011;3852;52.284;8.032;2022-08-18T09:38:54;18.57;;;16.37;;
7621;SDS011;3852;52.284;8.032;2022-08-18T09:41:52;18.50;;;16.43;;
7621;SDS011;3852;52.284;8.032;2022-08-18T09:47:11;19.70;;;16.80;;
7621;SDS011;3852;52.284;8.032;2022-08-18T09:54:59;17.50;;;15.70;;
7621;SDS011;3852;52.284;8.032;2022-08-18T09:57:34;16.03;;;14.43;;
7621;SDS011;3852;52.284;8.032;2022-08-18T10:22:00;12.47;;;10.37;;
7621;SDS011;3852;52.284;8.032;2022-08-18T10:24:51;9.83;;;8.80;;
7621;SDS011;3852;52.284;8.032;2022-08-18T10:30:00;8.70;;;7.63;;
7621;SDS011;3852;52.284;8.032;2022-08-18T10:32:37;9.50;;;7.57;;
7621;SDS011;3852;52.284;8.032;2022-08-18T10:37:58;8.37;;;7.57;;
7621;SDS011;3852;52.284;8.032;2022-08-18T10:40:55;7.10;;;6.50;;
7621;SDS011;3852;52.284;8.032;2022-08-18T10:43:46;7.20;;;6.60;;
7621;SDS011;3852;52.284;8.032;2022-08-18T10:46:16;7.40;;;6.80;;
7621;SDS011;3852;52.284;8.032;2022-08-18T10:49:14;7.60;;;6.90;;
7621;SDS011;3852;52.284;8.032;2022-08-18T10:57:23;6.10;;;5.60;;
7621;SDS011;3852;52.284;8.032;2022-08-18T11:00:18;6.87;;;6.23;;
7621;SDS011;3852;52.284;8.032;2022-08-18T11:05:45;6.03;;;5.43;;
7621;SDS011;3852;52.284;8.032;2022-08-18T11:08:16;6.90;;;6.17;;
7621;SDS011;3852;52.284;8.032;2022-08-18T11:10:45;7.43;;;6.73;;
7621;SDS011;3852;52.284;8.032;2022-08-18T11:13:29;7.57;;;6.77;;
7621;SDS011;3852;52.284;8.032;2022-08-18T11:19:15;7.13;;;6.43;;
7621;SDS011;3852;52.284;8.032;2022-08-18T11:21:45;7.83;;;7.03;;
7621;SDS011;3852;52.284;8.032;2022-08-18T11:24:17;7.73;;;7.07;;
7621;SDS011;3852;52.284;8.032;2022-08-18T11:26:52;9.63;;;7.03;;
7621;SDS011;3852;52.284;8.032;2022-08-18T11:32:22;6.90;;;6.30;;
7621;SDS011;3852;52.284;8.032;2022-08-18T11:34:59;6.80;;;6.10;;
7621;SDS011;3852;52.284;8.032;2022-08-18T11:37:52;8.40;;;6.67;;
7621;SDS011;3852;52.284;8.032;2022-08-18T11:40:32;7.40;;;6.70;;
7621;SDS011;3852;52.284;8.032;2022-08-18T11:58:42;8.40;;;7.70;;
7621;SDS011;3852;52.284;8.032;2022-08-18T12:04:23;7.93;;;7.33;;
7621;SDS011;3852;52.284;8.032;2022-08-18T12:07:05;8.83;;;8.00;;
7621;SDS011;3852;52.284;8.032;2022-08-18T12:10:10;8.00;;;7.30;;
7621;SDS011;3852;52.284;8.032;2022-08-18T12:12:52;7.87;;;7.17;;
7621;SDS011;3852;52.284;8.032;2022-08-18T12:17:49;10.10;;;8.93;;
7621;SDS011;3852;52.284;8.032;2022-08-18T12:20:15;9.67;;;8.47;;
7621;SDS011;3852;52.284;8.032;2022-08-18T12:22:42;7.83;;;7.13;;
7621;SDS011;3852;52.284;8.032;2022-08-18T12:25:13;9.30;;;8.37;;
7621;SDS011;3852;52.284;8.032;2022-08-18T12:27:41;8.60;;;7.90;;
7621;SDS011;3852;52.284;8.032;2022-08-18T12:30:08;9.37;;;8.50;;
7621;SDS011;3852;52.284;8.032;2022-08-18T12:32:36;8.77;;;7.97;;
7621;SDS011;3852;52.284;8.032;2022-08-18T12:35:03;7.93;;;7.20;;
7621;SDS011;3852;52.284;8.032;2022-08-18T12:37:32;7.70;;;7.00;;
7621;SDS011;3852;52.284;8.032;2022-08-18T12:40:01;8.87;;;7.97;;
7621;SDS011;3852;52.284;8.032;2022-08-18T12:42:28;7.50;;;6.90;;
7621;SDS011;3852;52.284;8.032;2022-08-18T12:44:53;7.67;;;6.90;;
7621;SDS011;3852;52.284;8.032;2022-08-18T12:47:23;6.80;;;6.20;;
7621;SDS011;3852;52.284;8.032;2022-08-18T12:49:51;6.90;;;6.20;;
7621;SDS011;3852;52.284;8.032;2022-08-18T12:52:17;6.80;;;6.30;;
7621;SDS011;3852;52.284;8.032;2022-08-18T12:54:45;6.60;;;6.00;;
7621;SDS011;3852;52.284;8.032;2022-08-18T12:57:19;7.37;;;6.33;;
7621;SDS011;3852;52.284;8.032;2022-08-18T12:59:52;5.80;;;5.30;;
7621;SDS011;3852;52.284;8.032;2022-08-18T13:02:18;5.67;;;5.17;;
7621;SDS011;3852;52.284;8.032;2022-08-18T13:04:45;5.40;;;5.00;;
7621;SDS011;3852;52.284;8.032;2022-08-18T13:07:12;5.63;;;5.13;;
7621;SDS011;3852;52.284;8.032;2022-08-18T13:09:40;4.90;;;4.60;;
7621;SDS011;3852;52.284;8.032;2022-08-18T13:12:07;5.37;;;4.97;;
7621;SDS011;3852;52.284;8.032;2022-08-18T13:14:34;5.20;;;4.80;;
7621;SDS011;3852;52.284;8.032;2022-08-18T13:17:02;5.60;;;5.10;;
7621;SDS011;3852;52.284;8.032;2022-08-18T13:19:28;5.60;;;5.20;;
7621;SDS011;3852;52.284;8.032;2022-08-18T13:21:54;5.63;;;5.13;;
7621;SDS011;3852;52.284;8.032;2022-08-18T13:24:20;6.27;;;5.07;;
7621;SDS011;3852;52.284;8.032;2022-08-18T13:26:46;6.33;;;5.73;;
7621;SDS011;3852;52.284;8.032;2022-08-18T13:29:13;5.73;;;5.33;;
7621;SDS011;3852;52.284;8.032;2022-08-18T13:31:41;5.70;;;5.20;;
7621;SDS011;3852;52.284;8.032;2022-08-18T13:34:08;6.60;;;5.73;;
7621;SDS011;3852;52.284;8.032;2022-08-18T13:36:34;6.20;;;5.60;;
7621;SDS011;3852;52.284;8.032;2022-08-18T13:39:13;5.83;;;5.37;;
7621;SDS011;3852;52.284;8.032;2022-08-18T13:41:42;6.53;;;5.20;;
7621;SDS011;3852;52.284;8.032;2022-08-18T13:44:10;5.57;;;5.10;;
7621;SDS011;3852;52.284;8.032;2022-08-18T13:46:39;5.43;;;5.03;;
7621;SDS011;3852;52.284;8.032;2022-08-18T13:49:16;5.80;;;5.30;;
7621;SDS011;3852;52.284;8.032;2022-08-18T13:51:45;6.30;;;5.90;;
7621;SDS011;3852;52.284;8.032;2022-08-18T13:54:21;6.00;;;5.53;;
7621;SDS011;3852;52.284;8.032;2022-08-18T13:56:57;6.17;;;5.67;;
7621;SDS011;3852;52.284;8.032;2022-08-18T13:59:24;5.60;;;5.20;;
7621;SDS011;3852;52.284;8.032;2022-08-18T14:01:55;5.93;;;5.43;;
7621;SDS011;3852;52.284;8.032;2022-08-18T14:04:23;5.53;;;5.13;;
7621;SDS011;3852;52.284;8.032;2022-08-18T14:06:52;6.10;;;5.60;;
7621;SDS011;3852;52.284;8.032;2022-08-18T14:09:19;5.70;;;5.30;;
7621;SDS011;3852;52.284;8.032;2022-08-18T14:11:45;5.87;;;5.10;;
7621;SDS011;3852;52.284;8.032;2022-08-18T14:14:13;4.83;;;4.43;;
7621;SDS011;3852;52.284;8.032;2022-08-18T14:16:39;4.60;;;4.30;;
7621;SDS011;3852;52.284;8.032;2022-08-18T14:19:04;4.53;;;4.23;;
7621;SDS011;3852;52.284;8.032;2022-08-18T14:21:49;5.03;;;4.60;;
7621;SDS011;3852;52.284;8.032;2022-08-18T14:24:36;5.17;;;4.33;;
7621;SDS011;3852;52.284;8.032;2022-08-18T14:27:27;4.90;;;4.50;;
7621;SDS011;3852;52.284;8.032;2022-08-18T14:30:32;4.73;;;4.40;;
7621;SDS011;3852;52.284;8.032;2022-08-18T14:32:51;4.70;;;4.33;;
7621;SDS011;3852;52.284;8.032;2022-08-18T14:35:17;5.17;;;4.67;;
7621;SDS011;3852;52.284;8.032;2022-08-18T14:37:43;4.83;;;4.43;;
7621;SDS011;3852;52.284;8.032;2022-08-18T14:40:12;4.30;;;4.00;;
7621;SDS011;3852;52.284;8.032;2022-08-18T14:42:38;4.57;;;4.07;;
7621;SDS011;3852;52.284;8.032;2022-08-18T14:45:06;4.43;;;4.13;;
7621;SDS011;3852;52.284;8.032;2022-08-18T14:47:32;4.23;;;3.93;;
7621;SDS011;3852;52.284;8.032;2022-08-18T14:49:58;4.30;;;4.00;;
7621;SDS011;3852;52.284;8.032;2022-08-18T14:52:25;4.67;;;4.27;;
7621;SDS011;3852;52.284;8.032;2022-08-18T14:54:51;4.77;;;4.27;;
7621;SDS011;3852;52.284;8.032;2022-08-18T14:57:19;4.63;;;4.23;;
7621;SDS011;3852;52.284;8.032;2022-08-18T14:59:44;5.10;;;4.50;;
7621;SDS011;3852;52.284;8.032;2022-08-18T15:02:10;4.97;;;4.43;;
7621;SDS011;3852;52.284;8.032;2022-08-18T15:04:37;3.73;;;3.43;;
7621;SDS011;3852;52.284;8.032;2022-08-18T15:07:03;4.43;;;4.03;;
7621;SDS011;3852;52.284;8.032;2022-08-18T15:09:29;4.53;;;4.13;;
7621;SDS011;3852;52.284;8.032;2022-08-18T15:11:56;5.77;;;3.70;;
7621;SDS011;3852;52.284;8.032;2022-08-18T15:14:24;4.50;;;4.10;;
7621;SDS011;3852;52.284;8.032;2022-08-18T15:16:55;6.43;;;4.50;;
7621;SDS011;3852;52.284;8.032;2022-08-18T15:19:23;5.60;;;3.93;;
7621;SDS011;3852;52.284;8.032;2022-08-18T15:21:49;3.97;;;3.60;;
7621;SDS011;3852;52.284;8.032;2022-08-18T15:24:33;4.77;;;4.27;;
7621;SDS011;3852;52.284;8.032;2022-08-18T15:27:22;5.23;;;4.83;;
7621;SDS011;3852;52.284;8.032;2022-08-18T15:29:48;4.43;;;4.00;;
7621;SDS011;3852;52.284;8.032;2022-08-18T15:32:13;4.00;;;3.70;;
7621;SDS011;3852;52.284;8.032;2022-08-18T15:34:40;4.17;;;3.87;;
7621;SDS011;3852;52.284;8.032;2022-08-18T15:37:07;4.40;;;4.00;;
7621;SDS011;3852;52.284;8.032;2022-08-18T15:39:33;8.03;;;4.00;;
7621;SDS011;3852;52.284;8.032;2022-08-18T15:41:59;4.13;;;3.73;;
7621;SDS011;3852;52.284;8.032;2022-08-18T15:44:33;3.90;;;3.60;;
7621;SDS011;3852;52.284;8.032;2022-08-18T15:46:59;3.60;;;3.40;;
7621;SDS011;3852;52.284;8.032;2022-08-18T15:49:28;4.20;;;3.90;;
7621;SDS011;3852;52.284;8.032;2022-08-18T15:51:56;4.53;;;3.67;;
7621;SDS011;3852;52.284;8.032;2022-08-18T15:54:22;4.07;;;3.47;;
7621;SDS011;3852;52.284;8.032;2022-08-18T15:56:48;8.33;;;6.00;;
7621;SDS011;3852;52.284;8.032;2022-08-18T15:59:14;8.00;;;5.93;;
7621;SDS011;3852;52.284;8.032;2022-08-18T16:01:40;5.37;;;4.87;;
7621;SDS011;3852;52.284;8.032;2022-08-18T16:04:07;5.83;;;3.90;;
7621;SDS011;3852;52.284;8.032;2022-08-18T16:06:33;3.70;;;3.40;;
7621;SDS011;3852;52.284;8.032;2022-08-18T16:09:02;3.80;;;3.40;;
7621;SDS011;3852;52.284;8.032;2022-08-18T16:11:29;4.43;;;3.47;;
7621;SDS011;3852;52.284;8.032;2022-08-18T16:13:55;3.50;;;3.20;;
7621;SDS011;3852;52.284;8.032;2022-08-18T16:16:25;3.60;;;3.30;;
7621;SDS011;3852;52.284;8.032;2022-08-18T16:18:51;3.90;;;3.60;;
7621;SDS011;3852;52.284;8.032;2022-08-18T16:21:19;3.87;;;3.53;;
7621;SDS011;3852;52.284;8.032;2022-08-18T16:23:49;3.60;;;3.30;;
7621;SDS011;3852;52.284;8.032;2022-08-18T16:26:18;4.83;;;3.50;;
7621;SDS011;3852;52.284;8.032;2022-08-18T16:28:46;4.87;;;3.73;;
7621;SDS011;3852;52.284;8.032;2022-08-18T16:31:18;3.70;;;3.33;;
7621;SDS011;3852;52.284;8.032;2022-08-18T16:33:54;3.37;;;3.17;;
7621;SDS011;3852;52.284;8.032;2022-08-18T16:36:22;4.10;;;3.20;;
7621;SDS011;3852;52.284;8.032;2022-08-18T16:38:51;5.50;;;3.50;;
7621;SDS011;3852;52.284;8.032;2022-08-18T16:41:19;5.00;;;3.27;;
7621;SDS011;3852;52.284;8.032;2022-08-18T16:43:45;3.70;;;3.40;;
7621;SDS011;3852;52.284;8.032;2022-08-18T16:46:13;3.43;;;3.13;;
7621;SDS011;3852;52.284;8.032;2022-08-18T16:48:47;3.73;;;3.43;;
7621;SDS011;3852;52.284;8.032;2022-08-18T16:51:14;4.67;;;3.90;;
7621;SDS011;3852;52.284;8.032;2022-08-18T16:53:43;6.60;;;4.67;;
7621;SDS011;3852;52.284;8.032;2022-08-18T16:56:15;3.90;;;3.30;;
7621;SDS011;3852;52.284;8.032;2022-08-18T16:58:51;3.73;;;3.43;;
7621;SDS011;3852;52.284;8.032;2022-08-18T17:01:35;4.00;;;3.30;;
7621;SDS011;3852;52.284;8.032;2022-08-18T17:04:22;4.10;;;3.60;;
7621;SDS011;3852;52.284;8.032;2022-08-18T17:06:53;5.27;;;3.87;;
7621;SDS011;3852;52.284;8.032;2022-08-18T17:09:20;3.70;;;3.40;;
7621;SDS011;3852;52.284;8.032;2022-08-18T17:11:46;3.80;;;3.50;;
7621;SDS011;3852;52.284;8.032;2022-08-18T17:14:13;3.97;;;3.60;;
7621;SDS011;3852;52.284;8.032;2022-08-18T17:16:42;3.50;;;3.30;;
7621;SDS011;3852;52.284;8.032;2022-08-18T17:19:08;4.30;;;3.77;;
7621;SDS011;3852;52.284;8.032;2022-08-18T17:21:34;3.93;;;3.53;;
7621;SDS011;3852;52.284;8.032;2022-08-18T17:24:04;6.07;;;3.27;;
7621;SDS011;3852;52.284;8.032;2022-08-18T17:29:31;3.57;;;3.27;;
7621;SDS011;3852;52.284;8.032;2022-08-18T17:32:10;4.43;;;3.60;;
7621;SDS011;3852;52.284;8.032;2022-08-18T17:34:53;3.67;;;3.37;;
7621;SDS011;3852;52.284;8.032;2022-08-18T17:38:00;5.50;;;3.70;;
7621;SDS011;3852;52.284;8.032;2022-08-18T17:40:42;4.77;;;3.93;;
7621;SDS011;3852;52.284;8.032;2022-08-18T17:43:15;5.30;;;3.50;;
7621;SDS011;3852;52.284;8.032;2022-08-18T17:45:45;6.47;;;4.30;;
7621;SDS011;3852;52.284;8.032;2022-08-18T17:48:23;184.00;;;137.50;;
7621;SDS011;3852;52.284;8.032;2022-08-18T17:51:16;6.07;;;5.20;;
7621;SDS011;3852;52.284;8.032;2022-08-18T17:53:58;3.83;;;3.50;;
7621;SDS011;3852;52.284;8.032;2022-08-18T17:56:51;3.30;;;3.00;;
7621;SDS011;3852;52.284;8.032;2022-08-18T17:59:37;3.83;;;3.53;;
7621;SDS011;3852;52.284;8.032;2022-08-18T18:02:26;3.80;;;3.50;;
7621;SDS011;3852;52.284;8.032;2022-08-18T18:04:58;4.10;;;3.70;;
7621;SDS011;3852;52.284;8.032;2022-08-18T18:07:30;3.07;;;2.87;;
7621;SDS011;3852;52.284;8.032;2022-08-18T18:10:11;3.53;;;3.30;;
7621;SDS011;3852;52.284;8.032;2022-08-18T18:15:49;3.67;;;2.97;;
7621;SDS011;3852;52.284;8.032;2022-08-18T18:23:53;4.37;;;3.60;;
7621;SDS011;3852;52.284;8.032;2022-08-18T18:32:01;3.93;;;3.50;;
7621;SDS011;3852;52.284;8.032;2022-08-18T18:38:26;4.33;;;3.50;;
7621;SDS011;3852;52.284;8.032;2022-08-18T18:43:39;2.90;;;2.70;;
7621;SDS011;3852;52.284;8.032;2022-08-18T19:00:35;3.80;;;3.10;;
7621;SDS011;3852;52.284;8.032;2022-08-18T19:13:59;3.90;;;2.57;;
7621;SDS011;3852;52.284;8.032;2022-08-18T19:16:42;3.03;;;2.77;;
7621;SDS011;3852;52.284;8.032;2022-08-18T19:19:52;2.80;;;2.60;;
7621;SDS011;3852;52.284;8.032;2022-08-18T19:31:13;4.37;;;2.97;;
7621;SDS011;3852;52.284;8.032;2022-08-18T19:33:49;2.53;;;2.40;;
7621;SDS011;3852;52.284;8.032;2022-08-18T19:39:16;3.00;;;2.70;;
7621;SDS011;3852;52.284;8.032;2022-08-18T19:41:48;5.07;;;2.90;;
7621;SDS011;3852;52.284;8.032;2022-08-18T19:45:35;2.90;;;2.70;;
7621;SDS011;3852;52.284;8.032;2022-08-18T19:50:35;4.20;;;2.80;;